Time;durP1;ratioP1;P1;durP2;ratioP2;P2;SDS_P1;SDS_P2;PMS_P1;PMS_P2;Temp;Humidity;BMP_temperature;BMP_pressure;BME280_temperature;BME280_humidity;BME280_pressure;Samples;Min_cycle;Max_cycle;Signal;HPM_P1;HPM_P2
2021/01/25 00:00:07;;;;;;;9.23;5.50;;;3.10;56.60;;;1.88;53.16;96672.22;5022400;28;20449;-79
2021/01/25 00:02:33;;;;;;;11.45;5.75;;;3.10;56.50;;;1.99;53.08;96671.53;5021575;28;20437;-80
2021/01/25 00:04:59;;;;;;;9.68;5.43;;;3.10;56.70;;;2.07;52.23;96665.22;5022275;28;20536;-79
2021/01/25 00:07:26;;;;;;;10.27;5.80;;;3.30;56.00;;;2.04;52.39;96666.44;5023408;28;20423;-79
2021/01/25 00:09:52;;;;;;;12.90;6.30;;;3.30;56.10;;;1.89;53.50;96663.38;5040627;28;20399;-79
2021/01/25 00:12:18;;;;;;;11.38;5.63;;;3.20;56.40;;;1.73;53.21;96651.66;5039500;28;20407;-80
2021/01/25 00:14:45;;;;;;;9.77;5.53;;;3.00;56.50;;;1.67;53.38;96652.50;5040363;28;20407;-79
2021/01/25 00:17:11;;;;;;;10.13;5.30;;;2.90;56.70;;;1.66;52.88;96650.91;5047420;28;20422;-78
2021/01/25 00:19:37;;;;;;;10.82;5.20;;;2.90;56.40;;;1.67;52.86;96636.84;5047923;28;20418;-78
2021/01/25 00:22:03;;;;;;;9.27;5.10;;;2.90;56.30;;;1.74;52.82;96640.22;5054546;28;20418;-78
2021/01/25 00:24:29;;;;;;;9.82;4.97;;;3.00;56.10;;;1.80;52.77;96634.16;5054952;28;20410;-79
2021/01/25 00:26:55;;;;;;;8.95;5.07;;;3.00;56.20;;;1.74;53.11;96631.59;5036561;28;20411;-78
2021/01/25 00:29:21;;;;;;;10.33;5.27;;;3.00;56.50;;;1.67;52.80;96633.44;5049480;28;20414;-79
2021/01/25 00:31:48;;;;;;;28.45;10.77;;;2.90;56.30;;;1.68;52.96;96629.84;5038688;28;20418;-79
2021/01/25 00:34:14;;;;;;;11.60;5.40;;;2.90;56.90;;;1.66;52.97;96627.44;5038663;28;20518;-78
2021/01/25 00:36:40;;;;;;;7.27;4.50;;;2.90;56.60;;;1.65;53.15;96631.06;5022205;28;20453;-80
2021/01/25 00:39:06;;;;;;;7.28;4.75;;;2.90;56.60;;;1.74;53.26;96627.16;5039992;28;20487;-78
2021/01/25 00:41:32;;;;;;;9.55;4.88;;;2.90;56.60;;;1.87;52.10;96621.06;5038716;28;20429;-78
2021/01/25 00:43:58;;;;;;;8.30;5.15;;;3.10;56.00;;;1.83;52.51;96619.88;5038870;28;20828;-79
2021/01/25 00:46:24;;;;;;;9.63;5.15;;;3.10;55.90;;;1.82;52.69;96623.50;5040548;28;20406;-79
2021/01/25 00:48:51;;;;;;;7.50;4.60;;;3.00;56.00;;;1.79;52.67;96623.94;5039951;28;20435;-79
2021/01/25 00:51:17;;;;;;;8.27;4.72;;;3.00;56.10;;;1.78;52.68;96628.34;5040365;28;20403;-79
2021/01/25 00:53:43;;;;;;;9.25;4.65;;;3.00;56.10;;;1.93;51.72;96620.19;5040029;28;20419;-78
2021/01/25 00:56:11;;;;;;;8.20;4.78;;;3.10;55.90;;;1.90;52.17;96615.38;5039227;28;20437;-79
2021/01/25 00:58:37;;;;;;;12.18;4.47;;;3.10;55.70;;;1.85;52.41;96616.03;5039580;28;20431;-77
2021/01/25 01:01:04;;;;;;;8.68;4.78;;;3.10;55.80;;;2.13;51.98;96614.78;5038998;28;20415;-79
2021/01/25 01:03:30;;;;;;;9.43;4.95;;;3.20;55.60;;;2.05;52.13;96609.81;5040258;28;20449;-80
2021/01/25 01:05:57;;;;;;;8.13;4.30;;;3.30;55.40;;;1.91;51.80;96614.38;5044628;28;20403;-79
2021/01/25 01:08:23;;;;;;;10.07;4.50;;;3.10;55.00;;;1.93;51.17;96607.16;5042856;28;20446;-79
2021/01/25 01:10:49;;;;;;;9.00;4.55;;;3.10;55.20;;;1.86;51.67;96606.41;5046823;28;20510;-80
2021/01/25 01:13:15;;;;;;;6.80;4.38;;;3.10;55.30;;;1.85;51.73;96613.44;5043192;28;20453;-79
2021/01/25 01:15:41;;;;;;;8.38;4.10;;;3.10;55.30;;;1.84;52.21;96605.81;5036360;28;20419;-79
2021/01/25 01:18:07;;;;;;;8.63;4.63;;;3.10;55.30;;;1.83;51.82;96609.44;5055077;28;20419;-79
2021/01/25 01:20:33;;;;;;;8.80;4.95;;;3.00;55.40;;;2.07;52.06;96610.41;5054206;28;20430;-79
2021/01/25 01:23:00;;;;;;;8.57;4.80;;;3.20;55.70;;;2.11;52.19;96611.56;5043758;28;20483;-79
2021/01/25 01:25:26;;;;;;;8.53;4.70;;;3.20;55.60;;;1.89;52.51;96606.75;5042605;28;20719;-79
2021/01/25 01:27:53;;;;;;;9.30;4.70;;;3.10;55.50;;;1.81;52.65;96606.22;5045066;28;20577;-79
2021/01/25 01:30:19;;;;;;;8.45;5.10;;;3.10;55.80;;;1.77;52.82;96603.28;5044139;28;20832;-79
2021/01/25 01:32:46;;;;;;;7.63;4.90;;;3.00;56.10;;;1.71;53.12;96600.72;5047441;28;20430;-79
2021/01/25 01:35:12;;;;;;;8.55;5.05;;;3.00;56.20;;;1.65;53.26;96591.94;5033540;28;20431;-79
2021/01/25 01:37:38;;;;;;;9.00;5.05;;;3.00;56.40;;;1.65;53.36;96591.16;5032921;28;20520;-80
2021/01/25 01:40:08;;;;;;;8.23;4.82;;;2.90;56.30;;;1.61;53.31;96585.56;5045767;28;20441;-79
2021/01/25 01:42:35;;;;;;;7.68;4.70;;;2.90;56.70;;;1.85;52.71;96584.72;5045164;28;20819;-79
2021/01/25 01:45:02;;;;;;;9.63;4.68;;;2.90;56.60;;;1.99;52.71;96582.00;5032522;28;20486;-78
2021/01/25 01:47:28;;;;;;;10.40;5.00;;;3.10;56.20;;;1.85;52.74;96587.34;5052933;28;20415;-78
2021/01/25 01:49:56;;;;;;;8.93;4.38;;;3.10;56.30;;;1.85;52.48;96587.34;5050393;28;20426;-78
2021/01/25 01:52:22;;;;;;;10.65;5.18;;;3.00;56.20;;;1.62;53.66;96596.78;5031601;28;20489;-78
2021/01/25 01:54:50;;;;;;;9.35;4.88;;;2.90;56.60;;;1.49;54.10;96595.88;5048456;28;20406;-78
2021/01/25 01:57:17;;;;;;;8.43;4.68;;;2.80;57.80;;;1.41;54.68;96592.75;5042425;28;20917;-79
2021/01/25 01:59:43;;;;;;;7.35;4.90;;;2.70;57.60;;;1.32;55.00;96583.59;5061858;28;20429;-79
2021/01/25 02:02:09;;;;;;;8.00;5.03;;;2.60;58.00;;;1.19;55.60;96583.69;5064004;28;20432;-78
2021/01/25 02:04:35;;;;;;;9.50;4.83;;;2.50;58.50;;;0.94;56.80;96581.84;5059638;28;20405;-79
2021/01/25 02:07:05;;;;;;;8.88;5.38;;;2.30;59.00;;;0.68;57.58;96584.56;5061593;28;20416;-79
2021/01/25 02:09:35;;;;;;;10.05;5.43;;;2.10;60.00;;;0.67;57.72;96577.78;5060487;28;20448;-78
2021/01/25 02:12:02;;;;;;;12.43;5.72;;;2.00;61.60;;;0.83;57.73;96582.50;5061418;28;20405;-77
2021/01/25 02:14:30;;;;;;;9.13;5.82;;;2.00;60.80;;;0.93;57.81;96582.84;5062319;28;20524;-79
2021/01/25 02:16:56;;;;;;;10.77;5.30;;;2.20;60.60;;;1.07;56.94;96580.94;5062589;28;20551;-78
2021/01/25 02:19:33;;;;;;;7.63;4.97;;;2.30;60.30;;;1.15;57.05;96581.50;5063934;28;20425;-77
2021/01/25 02:22:16;;;;;;;10.05;5.05;;;2.40;60.00;;;1.16;56.66;96580.50;5061016;28;20795;-78
2021/01/25 02:24:50;;;;;;;11.43;5.32;;;2.50;59.80;;;1.22;56.76;96583.25;5066352;28;20554;-78
2021/01/25 02:27:31;;;;;;;9.55;5.10;;;2.50;59.90;;;1.24;56.81;96582.03;5102745;28;20439;-78
2021/01/25 02:29:59;;;;;;;10.70;5.68;;;2.50;59.70;;;1.24;56.55;96576.81;5068999;28;20405;-78
2021/01/25 02:32:29;;;;;;;9.35;5.30;;;2.50;59.70;;;1.08;57.68;96575.53;5066865;28;20408;-78
2021/01/25 02:34:56;;;;;;;11.63;5.82;;;2.50;60.00;;;1.07;57.49;96579.13;5066482;28;20420;-78
2021/01/25 02:37:23;;;;;;;11.68;5.43;;;2.40;60.40;;;1.07;58.24;96575.72;5065702;28;20487;-77
2021/01/25 02:39:51;;;;;;;11.73;5.32;;;2.30;60.80;;;1.13;57.54;96577.50;5059984;28;20877;-77
2021/01/25 02:42:19;;;;;;;10.77;5.40;;;2.30;60.70;;;0.99;58.34;96571.56;5057964;28;20599;-79
2021/01/25 02:44:47;;;;;;;8.95;5.28;;;2.30;60.90;;;1.10;58.13;96575.31;5060090;28;20421;-79
2021/01/25 02:47:15;;;;;;;8.07;5.32;;;2.30;61.10;;;1.06;58.24;96568.91;5076465;28;20441;-79
2021/01/25 02:49:41;;;;;;;10.93;5.20;;;2.30;60.80;;;1.09;58.28;96573.72;5059981;28;20400;-78
2021/01/25 02:52:07;;;;;;;10.27;5.72;;;2.40;60.90;;;1.16;57.97;96566.66;5066991;28;20409;-78
2021/01/25 02:54:34;;;;;;;9.65;5.78;;;2.40;60.80;;;1.24;58.06;96566.41;5070829;28;20402;-78
2021/01/25 02:57:01;;;;;;;10.77;5.40;;;2.50;60.60;;;1.27;57.79;96571.19;5069891;28;20418;-78
2021/01/25 02:59:28;;;;;;;11.63;5.40;;;2.50;60.40;;;1.49;57.48;96566.41;5069819;28;20489;-79
2021/01/25 03:01:55;;;;;;;9.40;5.25;;;2.60;60.50;;;1.50;57.16;96574.00;5065689;28;20461;-79
2021/01/25 03:04:21;;;;;;;10.05;5.20;;;2.70;60.00;;;1.57;56.93;96571.34;5066245;28;20425;-79
2021/01/25 03:06:48;;;;;;;9.02;5.47;;;2.80;59.90;;;1.58;57.44;96575.53;5068596;28;20406;-79
2021/01/25 03:09:14;;;;;;;8.73;5.73;;;2.80;60.00;;;1.67;57.39;96582.06;5067576;28;20417;-79
2021/01/25 03:11:40;;;;;;;11.25;5.00;;;2.90;60.50;;;1.72;58.63;96587.47;5067358;28;20405;-79
2021/01/25 03:14:09;;;;;;;9.23;5.07;;;2.90;61.40;;;1.64;59.95;96594.75;5073620;28;20413;-79
2021/01/25 03:16:35;;;;;;;10.32;5.63;;;2.90;62.70;;;1.38;62.09;96607.00;5075411;28;20484;-78
2021/01/25 03:19:03;;;;;;;10.43;5.53;;;2.70;64.50;;;1.31;63.59;96605.44;5074179;28;20492;-78
2021/01/25 03:21:29;;;;;;;13.30;5.55;;;2.60;66.00;;;1.26;64.97;96605.28;5067247;28;20477;-79
2021/01/25 03:23:55;;;;;;;13.15;5.82;;;2.50;67.30;;;1.16;65.88;96611.75;5089981;28;20512;-78
2021/01/25 03:26:21;;;;;;;13.85;6.03;;;2.50;68.20;;;1.12;66.03;96612.41;5075337;28;20402;-78
2021/01/25 03:28:47;;;;;;;13.13;5.63;;;2.40;68.50;;;1.02;66.88;96615.47;5073097;28;20412;-79
2021/01/25 03:31:13;;;;;;;12.10;6.10;;;2.40;69.40;;;1.01;67.58;96610.44;5061450;28;20405;-79
2021/01/25 03:33:39;;;;;;;15.77;6.65;;;2.30;70.10;;;1.02;68.60;96612.84;5059383;28;20401;-79
2021/01/25 03:36:07;;;;;;;12.02;6.32;;;2.30;70.80;;;1.00;68.57;96614.06;5063556;28;20415;-78
2021/01/25 03:38:33;;;;;;;13.18;6.47;;;2.30;71.20;;;0.98;69.49;96614.25;5067260;28;20453;-78
2021/01/25 03:40:59;;;;;;;10.73;5.82;;;2.30;71.80;;;0.97;69.90;96611.91;5068116;28;20409;-78
2021/01/25 03:43:25;;;;;;;11.63;6.28;;;2.30;72.30;;;1.02;69.71;96617.25;5067309;28;20431;-79
2021/01/25 03:45:52;;;;;;;13.40;6.28;;;2.30;72.50;;;1.05;69.12;96612.41;5070031;28;20421;-80
2021/01/25 03:48:18;;;;;;;9.60;6.17;;;2.30;72.10;;;1.07;69.74;96610.41;5070721;28;20409;-79
2021/01/25 03:50:44;;;;;;;9.43;5.75;;;2.30;72.60;;;1.13;70.02;96619.19;5070942;28;20424;-79
2021/01/25 03:53:11;;;;;;;10.60;5.65;;;2.30;72.60;;;1.05;70.23;96609.81;5070602;28;20417;-79
2021/01/25 03:55:37;;;;;;;11.45;5.72;;;2.30;72.70;;;1.16;70.31;96610.97;5070537;28;20496;-79
2021/01/25 03:58:03;;;;;;;12.50;5.70;;;2.40;73.00;;;1.22;70.53;96615.31;5052675;28;20442;-82
2021/01/25 04:00:29;;;;;;;7.75;5.43;;;2.40;73.90;;;1.16;70.41;96608.34;5042539;28;20742;-81
2021/01/25 04:02:56;;;;;;;10.50;5.78;;;2.40;73.10;;;1.10;71.12;96611.81;5042165;28;20422;-82
2021/01/25 04:05:23;;;;;;;11.57;5.65;;;2.40;73.40;;;1.13;71.15;96608.75;5024840;28;20426;-81
2021/01/25 04:07:49;;;;;;;10.55;5.90;;;2.40;74.00;;;1.12;71.04;96615.00;5042469;28;20431;-81
2021/01/25 04:10:16;;;;;;;8.83;5.73;;;2.40;74.00;;;1.14;71.33;96618.19;5041747;28;20481;-82
2021/01/25 04:12:42;;;;;;;9.00;5.65;;;2.40;73.90;;;1.19;71.56;96618.38;5039406;28;20415;-81
2021/01/25 04:15:09;;;;;;;10.00;6.10;;;2.40;74.00;;;1.18;71.25;96616.78;5039749;28;20417;-81
2021/01/25 04:17:36;;;;;;;9.80;5.93;;;2.50;74.10;;;1.23;71.80;96616.13;5040169;28;20427;-82
2021/01/25 04:20:05;;;;;;;11.05;5.68;;;2.40;74.20;;;1.23;71.87;96622.13;5024650;28;20434;-81
2021/01/25 04:22:31;;;;;;;11.15;5.82;;;2.50;74.40;;;1.30;71.75;96620.28;5039884;28;20430;-80
2021/01/25 04:24:57;;;;;;;10.43;5.72;;;2.50;74.50;;;1.33;71.63;96616.47;5039399;28;20458;-81
2021/01/25 04:27:24;;;;;;;9.50;5.57;;;2.50;74.50;;;1.24;71.76;96623.75;5039605;28;20422;-82
2021/01/25 04:29:51;;;;;;;10.35;5.40;;;2.50;74.60;;;1.28;72.08;96621.53;5040182;28;20421;-81
2021/01/25 04:32:17;;;;;;;9.80;5.70;;;2.50;74.80;;;1.24;72.04;96622.94;5039990;28;20403;-81
2021/01/25 04:34:43;;;;;;;10.48;5.70;;;2.50;75.00;;;1.25;72.56;96617.53;5040307;28;20403;-80
2021/01/25 04:37:09;;;;;;;23.05;11.20;;;2.50;75.10;;;1.17;72.74;96615.97;5020913;28;20527;-82
2021/01/25 04:39:37;;;;;;;11.55;6.38;;;2.40;75.20;;;1.16;72.69;96618.78;5039111;28;20438;-80
2021/01/25 04:42:04;;;;;;;9.80;5.97;;;2.40;75.40;;;1.20;72.44;96611.34;5042825;28;20407;-80
2021/01/25 04:44:32;;;;;;;10.07;5.95;;;2.40;75.50;;;1.23;72.20;96616.94;5042298;28;20411;-81
2021/01/25 04:47:01;;;;;;;9.63;5.82;;;2.40;75.10;;;1.19;71.90;96609.75;5042280;28;20725;-82
2021/01/25 04:49:28;;;;;;;10.68;5.78;;;2.50;74.90;;;1.15;72.06;96619.78;5043226;28;20426;-81
2021/01/25 04:51:55;;;;;;;11.98;6.32;;;2.40;75.10;;;1.14;73.17;96623.41;5043261;28;20807;-81
2021/01/25 04:54:21;;;;;;;9.18;6.05;;;2.40;75.60;;;1.16;73.24;96619.59;5042087;28;20529;-81
2021/01/25 04:56:49;;;;;;;13.15;6.03;;;2.40;76.00;;;1.28;73.74;96617.09;5042743;28;20438;-81
2021/01/25 04:59:16;;;;;;;8.40;5.57;;;2.40;76.20;;;1.32;73.18;96617.47;5042961;28;20491;-81
2021/01/25 05:01:43;;;;;;;8.65;5.70;;;2.60;76.00;;;1.35;73.03;96624.88;5042577;28;20425;-81
2021/01/25 05:04:09;;;;;;;9.13;6.20;;;2.50;76.00;;;1.33;72.86;96625.09;5042298;28;20473;-81
2021/01/25 05:06:37;;;;;;;8.25;5.93;;;2.60;75.60;;;1.35;73.11;96625.69;5024892;28;20423;-80
2021/01/25 05:09:04;;;;;;;10.50;6.00;;;2.60;75.90;;;1.33;73.40;96626.91;5045632;28;20426;-81
2021/01/25 05:11:30;;;;;;;11.02;6.13;;;2.60;76.00;;;1.28;73.08;96632.72;5026273;28;20446;-81
2021/01/25 05:14:03;;;;;;;10.23;6.27;;;2.50;76.00;;;1.24;73.31;96626.34;5044774;28;20439;-81
2021/01/25 05:16:31;;;;;;;11.43;5.72;;;2.50;76.30;;;1.51;73.13;96627.75;5056561;28;20415;-79
2021/01/25 05:19:04;;;;;;;11.43;6.10;;;2.60;76.80;;;1.33;73.24;96625.09;5055935;28;20438;-81
2021/01/25 05:21:37;;;;;;;9.77;6.03;;;2.60;76.10;;;1.45;73.46;96628.59;5057215;28;20411;-80
2021/01/25 05:24:05;;;;;;;10.85;5.75;;;2.60;76.60;;;1.30;73.46;96633.31;5033232;28;20784;-81
2021/01/25 05:26:32;;;;;;;11.25;5.57;;;2.60;76.30;;;1.21;73.90;96633.78;5026195;28;20555;-81
2021/01/25 05:28:58;;;;;;;9.30;6.00;;;2.50;76.20;;;1.26;73.62;96628.75;5043838;28;20418;-80
2021/01/25 05:31:25;;;;;;;10.77;5.50;;;2.50;76.70;;;1.21;73.95;96634.56;5044326;28;20407;-80
2021/01/25 05:33:52;;;;;;;9.65;5.20;;;2.50;76.60;;;1.24;73.77;96646.41;5042449;28;20434;-81
2021/01/25 05:36:26;;;;;;;10.43;5.63;;;2.40;76.60;;;1.25;73.53;96637.56;5056421;28;20407;-81
2021/01/25 05:38:53;;;;;;;9.80;4.95;;;2.50;76.70;;;1.28;73.22;96635.34;5056442;28;21009;-81
2021/01/25 05:41:21;;;;;;;11.52;5.30;;;2.50;76.20;;;1.26;72.85;96637.38;5057445;28;20406;-80
2021/01/25 05:43:49;;;;;;;8.80;5.35;;;2.50;76.00;;;1.30;73.22;96637.72;5056243;28;20422;-79
2021/01/25 05:46:18;;;;;;;10.35;5.68;;;2.50;76.00;;;1.29;73.22;96638.75;5053097;28;20411;-79
2021/01/25 05:48:56;;;;;;;7.90;5.20;;;2.50;76.20;;;1.41;72.65;96642.28;5055358;28;20450;-80
2021/01/25 05:51:30;;;;;;;8.38;5.20;;;2.50;76.00;;;1.32;72.22;96640.94;5055139;28;20636;-80
2021/01/25 05:53:56;;;;;;;12.35;5.57;;;2.60;75.30;;;1.40;72.16;96645.91;5054330;28;20430;-82
2021/01/25 05:56:22;;;;;;;14.10;6.32;;;2.60;75.50;;;1.46;72.24;96642.44;5057893;28;20497;-82
2021/01/25 05:58:48;;;;;;;16.30;6.53;;;2.60;75.50;;;1.41;72.37;96648.31;5057241;28;20418;-81
2021/01/25 06:01:19;;;;;;;13.65;5.78;;;2.70;75.60;;;1.39;72.29;96650.31;5055702;28;20434;-80
2021/01/25 06:03:45;;;;;;;15.73;5.63;;;2.70;75.30;;;1.64;71.25;96650.34;5054405;28;20415;-78
2021/01/25 06:06:15;;;;;;;16.23;6.43;;;2.70;74.90;;;1.46;72.18;96651.06;5055455;28;20603;-80
2021/01/25 06:08:59;;;;;;;14.68;5.72;;;2.70;75.80;;;1.58;71.17;96653.78;5045040;28;20422;-80
2021/01/25 06:11:29;;;;;;;16.85;5.97;;;2.70;74.60;;;1.39;71.55;96644.31;5043308;28;20484;-81
2021/01/25 06:13:59;;;;;;;15.23;6.30;;;2.70;74.60;;;1.38;72.05;96656.53;5043884;28;20418;-82
2021/01/25 06:16:27;;;;;;;15.25;6.70;;;2.60;75.00;;;1.37;72.11;96657.53;5043731;28;20502;-83
2021/01/25 06:18:59;;;;;;;13.63;6.47;;;2.60;75.10;;;1.48;72.09;96656.06;5042915;28;20431;-81
2021/01/25 06:21:29;;;;;;;10.15;6.10;;;2.60;75.20;;;1.55;71.67;96659.44;5042599;28;20414;-81
2021/01/25 06:24:01;;;;;;;9.63;5.97;;;2.70;75.50;;;1.32;71.85;96669.63;5041935;28;20452;-81
2021/01/25 06:26:30;;;;;;;11.73;5.90;;;2.70;74.80;;;1.29;71.80;96670.03;5041945;28;20403;-81
2021/01/25 06:29:00;;;;;;;13.50;6.28;;;2.50;74.80;;;0.94;72.97;96673.03;5025853;28;20423;-84
2021/01/25 06:31:26;;;;;;;11.50;6.10;;;2.40;75.70;;;0.89;73.68;96670.25;5026135;28;20473;-79
2021/01/25 06:33:53;;;;;;;13.75;6.22;;;2.20;76.70;;;0.90;73.70;96676.25;5045464;28;20426;-81
2021/01/25 06:36:20;;;;;;;13.15;6.30;;;2.10;76.80;;;0.94;73.60;96677.44;5048658;28;20430;-79
2021/01/25 06:38:49;;;;;;;13.32;6.20;;;2.20;76.90;;;1.02;73.62;96677.19;5049080;28;20434;-81
2021/01/25 06:41:17;;;;;;;18.73;7.38;;;2.20;77.00;;;0.97;73.86;96684.84;5048826;28;20486;-80
2021/01/25 06:43:48;;;;;;;13.07;7.38;;;2.20;77.80;;;0.97;74.20;96680.44;5049315;28;20445;-81
2021/01/25 06:46:20;;;;;;;12.80;6.60;;;2.30;77.30;;;1.12;73.61;96691.41;5048967;28;20418;-81
2021/01/25 06:48:49;;;;;;;11.82;6.38;;;2.30;76.90;;;1.16;73.11;96699.56;5048015;28;20449;-82
2021/01/25 06:51:17;;;;;;;12.57;5.85;;;2.40;76.50;;;1.28;72.60;96699.72;5047971;28;20415;-81
2021/01/25 06:53:43;;;;;;;14.35;6.22;;;2.40;76.10;;;1.31;72.94;96694.09;5046532;28;20411;-80
2021/01/25 06:56:09;;;;;;;12.85;6.63;;;2.50;76.10;;;1.45;72.92;96700.81;5046404;28;20430;-80
2021/01/25 06:58:38;;;;;;;17.75;7.03;;;2.60;76.50;;;1.35;72.52;96696.09;5046344;28;20423;-80
2021/01/25 07:01:08;;;;;;;20.73;7.45;;;2.60;75.70;;;1.24;72.78;96703.75;5049079;28;20697;-80
2021/01/25 07:03:49;;;;;;;13.70;6.65;;;2.50;75.70;;;1.24;72.81;96706.34;5031689;28;20411;-79
2021/01/25 07:06:16;;;;;;;20.83;8.85;;;2.50;75.90;;;1.24;72.63;96708.97;5046992;28;20431;-79
2021/01/25 07:08:53;;;;;;;17.17;7.30;;;2.50;75.80;;;1.27;73.29;96719.00;5047637;28;20403;-79
2021/01/25 07:11:21;;;;;;;13.32;7.03;;;2.50;76.20;;;1.40;73.60;96721.53;5045053;28;20473;-79
2021/01/25 07:13:49;;;;;;;13.07;6.53;;;2.60;76.50;;;1.54;72.69;96730.84;5041885;28;20468;-79
2021/01/25 07:16:17;;;;;;;14.63;6.50;;;2.70;76.20;;;1.61;72.39;96728.22;5024003;28;20465;-79
2021/01/25 07:18:44;;;;;;;16.95;6.72;;;2.70;75.80;;;1.52;72.14;96732.88;5042618;28;20459;-80
2021/01/25 07:21:13;;;;;;;14.00;6.35;;;2.80;75.40;;;1.43;72.21;96734.91;5041180;28;20407;-79
2021/01/25 07:23:42;;;;;;;14.73;5.97;;;2.60;75.40;;;1.62;70.77;96732.41;5041485;28;20519;-81
2021/01/25 07:26:11;;;;;;;14.45;6.13;;;2.80;74.60;;;1.52;71.31;96738.88;5041699;28;20431;-80
2021/01/25 07:28:38;;;;;;;9.73;5.90;;;2.70;74.80;;;1.36;71.20;96741.19;5042907;28;20421;-80
2021/01/25 07:31:06;;;;;;;14.23;6.50;;;2.70;74.60;;;1.40;71.71;96740.56;5046699;28;20477;-81
2021/01/25 07:33:33;;;;;;;11.77;6.15;;;2.60;75.10;;;1.23;72.10;96746.47;5048131;28;20453;-81
2021/01/25 07:35:59;;;;;;;11.90;5.85;;;2.50;75.40;;;1.24;71.17;96751.47;5045493;28;20411;-81
2021/01/25 07:39:19;;;;;;;11.50;6.25;;;2.40;74.70;;;1.26;71.78;96746.84;5045256;28;20435;-81
2021/01/25 07:41:47;;;;;;;16.00;6.68;;;2.50;75.20;;;1.24;72.10;96759.28;5027492;28;20427;-78
2021/01/25 07:44:14;;;;;;;13.10;6.90;;;2.50;75.20;;;1.30;71.67;96761.06;5046622;28;20403;-78
2021/01/25 07:46:45;;;;;;;14.43;7.23;;;2.60;75.10;;;1.31;72.67;96770.50;5051594;28;20472;-78
2021/01/25 07:49:12;;;;;;;15.65;6.22;;;2.60;75.90;;;1.40;72.38;96771.06;5045417;28;20452;-78
2021/01/25 07:51:39;;;;;;;13.52;6.32;;;2.60;75.80;;;1.57;73.07;96766.97;5025338;28;20415;-79
2021/01/25 07:54:13;;;;;;;9.87;6.43;;;2.70;76.10;;;1.70;72.49;96773.91;5052220;28;20485;-79
2021/01/25 07:56:42;;;;;;;13.17;6.03;;;2.80;76.10;;;1.59;71.89;96774.56;5050891;28;20558;-78
2021/01/25 07:59:14;;;;;;;12.48;6.18;;;2.80;75.30;;;1.50;72.33;96772.19;5046990;28;20438;-78
2021/01/25 08:01:53;;;;;;;19.58;6.95;;;2.70;75.50;;;1.45;72.83;96781.66;5041795;28;20403;-77
2021/01/25 08:04:23;;;;;;;14.20;5.80;;;2.70;76.10;;;1.54;72.54;96780.41;5045871;28;20423;-78
2021/01/25 08:06:55;;;;;;;10.00;6.05;;;2.70;75.80;;;1.51;72.98;96793.84;5045602;28;20566;-78
2021/01/25 08:09:22;;;;;;;12.55;5.80;;;2.70;76.00;;;1.59;73.14;96780.56;5041769;28;20429;-77
2021/01/25 08:11:49;;;;;;;11.20;6.18;;;2.70;76.30;;;1.65;73.26;96792.81;5020657;28;20495;-77
2021/01/25 08:14:25;;;;;;;27.02;7.90;;;2.80;76.50;;;1.54;73.53;96799.47;5037171;28;20438;-78
2021/01/25 08:16:59;;;;;;;23.08;8.32;;;2.80;76.90;;;1.25;74.82;96797.41;5040568;28;20407;-79
2021/01/25 08:19:35;;;;;;;19.95;8.25;;;2.60;77.70;;;1.34;74.88;96800.56;5039614;28;20461;-78
2021/01/25 08:22:05;;;;;;;17.42;7.53;;;2.50;78.20;;;1.33;74.96;96797.16;5036009;28;20414;-77
2021/01/25 08:24:32;;;;;;;14.65;7.68;;;2.60;78.20;;;1.29;75.02;96800.38;5018766;28;20418;-77
2021/01/25 08:27:14;;;;;;;18.73;7.32;;;2.50;78.40;;;1.05;76.02;96807.88;5022146;28;20411;-78
2021/01/25 08:29:43;;;;;;;15.50;8.80;;;2.40;78.80;;;0.85;76.28;96822.75;5039408;28;20493;-77
2021/01/25 08:32:21;;;;;;;16.73;8.70;;;2.20;79.50;;;0.70;77.25;96819.56;5039371;28;20403;-78
2021/01/25 08:34:57;;;;;;;17.53;8.13;;;2.00;80.20;;;0.65;77.43;96820.19;5023589;28;20422;-77
2021/01/25 08:37:28;;;;;;;17.95;8.25;;;1.90;80.40;;;0.84;76.78;96828.16;5043387;28;20829;-78
2021/01/25 08:39:54;;;;;;;20.85;8.35;;;2.00;80.40;;;0.91;76.83;96828.94;5043890;28;20433;-78
2021/01/25 08:42:24;;;;;;;16.50;7.97;;;2.10;80.20;;;1.05;76.06;96823.50;5026284;28;20435;-77
2021/01/25 08:44:55;;;;;;;17.63;8.38;;;2.20;79.80;;;1.19;75.89;96831.31;5041473;28;20407;-77
2021/01/25 08:47:25;;;;;;;17.83;8.18;;;2.30;79.50;;;1.23;75.63;96837.69;5042133;28;20710;-76
2021/01/25 08:49:52;;;;;;;17.55;7.05;;;2.40;79.20;;;1.19;75.79;96831.31;5042839;28;20403;-77
2021/01/25 08:52:30;;;;;;;15.15;7.80;;;2.40;78.90;;;1.20;75.62;96832.91;5041857;28;20461;-77
2021/01/25 08:55:11;;;;;;;45.25;24.20;;;2.40;78.70;;;1.27;75.67;96839.72;5024627;28;20510;-77
2021/01/25 08:57:40;;;;;;;18.65;8.40;;;2.50;79.00;;;1.37;75.89;96844.47;5041565;28;20427;-77
2021/01/25 09:00:13;;;;;;;17.85;8.00;;;2.60;79.10;;;1.54;74.94;96846.41;5043069;28;20403;-78
2021/01/25 09:02:40;;;;;;;14.20;7.35;;;2.70;78.60;;;1.65;74.05;96849.41;5042358;28;20427;-77
2021/01/25 09:05:08;;;;;;;10.02;6.63;;;2.80;77.80;;;1.65;74.06;96852.00;5023968;28;20503;-76
2021/01/25 09:07:34;;;;;;;17.25;7.45;;;2.80;77.60;;;1.53;74.28;96850.03;5041848;28;20415;-77
2021/01/25 09:10:00;;;;;;;14.00;7.40;;;2.80;77.70;;;1.38;75.08;96859.09;5022865;28;20419;-78
2021/01/25 09:12:26;;;;;;;18.08;8.45;;;2.70;78.40;;;1.44;75.80;96863.50;5039783;28;20411;-75
2021/01/25 09:14:53;;;;;;;16.40;7.47;;;2.60;78.90;;;1.38;75.83;96867.75;5038919;28;20418;-77
2021/01/25 09:17:22;;;;;;;20.05;9.38;;;2.60;79.30;;;1.45;76.04;96867.72;5020905;28;20430;-77
2021/01/25 09:19:48;;;;;;;13.85;7.90;;;2.60;79.30;;;1.54;75.56;96879.53;5039465;28;20804;-77
2021/01/25 09:22:14;;;;;;;16.20;7.85;;;2.70;79.20;;;1.66;75.43;96874.44;5037487;28;20739;-77
2021/01/25 09:24:47;;;;;;;19.23;7.63;;;2.80;79.10;;;1.76;75.16;96873.00;5037708;28;20488;-77
2021/01/25 09:27:14;;;;;;;16.35;7.90;;;2.90;78.90;;;1.79;75.26;96884.84;5049521;28;20521;-78
2021/01/25 09:29:40;;;;;;;17.77;7.65;;;3.00;78.60;;;1.85;74.68;96879.59;5050364;28;20421;-78
2021/01/25 09:32:07;;;;;;;20.23;8.38;;;3.10;78.30;;;1.89;74.35;96895.63;5049533;28;20462;-79
2021/01/25 09:34:34;;;;;;;15.13;7.40;;;3.10;78.10;;;2.10;73.38;96894.53;5042984;28;20407;-79
2021/01/25 09:37:02;;;;;;;13.07;7.13;;;3.20;77.10;;;2.15;73.23;96897.31;5042313;28;20439;-77
2021/01/25 09:39:29;;;;;;;17.10;7.78;;;3.30;76.80;;;2.11;73.10;96904.75;5039116;28;20561;-78
2021/01/25 09:41:55;;;;;;;17.87;8.30;;;3.30;76.60;;;2.02;73.90;96906.03;5036803;28;20413;-77
2021/01/25 09:44:21;;;;;;;20.42;8.40;;;3.30;77.50;;;2.07;73.84;96913.22;5035498;28;20485;-77
2021/01/25 09:46:47;;;;;;;24.10;8.85;;;3.20;77.50;;;2.07;74.22;96921.03;5036215;28;20780;-77
2021/01/25 09:49:13;;;;;;;19.52;8.13;;;3.30;77.40;;;1.94;73.92;96921.91;5023158;28;20693;-79
2021/01/25 09:51:41;;;;;;;18.20;8.73;;;3.20;77.50;;;1.97;73.67;96928.50;5038338;28;20410;-77
2021/01/25 09:54:07;;;;;;;22.95;8.43;;;3.10;77.40;;;1.95;73.91;96926.91;5038839;28;20415;-79
2021/01/25 09:56:33;;;;;;;22.98;7.90;;;3.10;77.70;;;1.97;73.48;96929.31;5041954;28;20418;-79
2021/01/25 09:58:59;;;;;;;24.48;9.65;;;3.10;77.20;;;2.02;73.48;96921.69;5027306;28;20431;-79
2021/01/25 10:01:25;;;;;;;18.58;8.35;;;3.10;77.30;;;2.04;73.74;96934.50;5052828;28;20410;-79
2021/01/25 10:03:51;;;;;;;17.08;7.53;;;3.20;77.50;;;2.09;72.86;96934.69;5049416;28;20500;-78
2021/01/25 10:06:18;;;;;;;15.77;7.57;;;3.20;76.80;;;2.10;73.08;96936.31;5048060;28;20501;-78
2021/01/25 10:08:47;;;;;;;13.95;7.13;;;3.30;77.10;;;2.08;72.80;96940.94;5045661;28;20521;-80
2021/01/25 10:11:14;;;;;;;12.15;6.80;;;3.30;76.60;;;2.28;72.59;96944.22;5048626;28;20507;-79
2021/01/25 10:13:41;;;;;;;15.82;7.30;;;3.30;76.60;;;2.33;72.18;96950.41;5053586;28;20407;-78
2021/01/25 10:16:07;;;;;;;12.57;7.40;;;3.40;76.30;;;2.23;72.46;96946.69;5052859;28;20422;-78
2021/01/25 10:18:33;;;;;;;15.98;7.45;;;3.40;76.40;;;2.33;72.28;96955.63;5050318;28;20458;-79
2021/01/25 10:20:59;;;;;;;16.53;7.17;;;3.40;76.30;;;2.29;72.45;96954.47;5051716;28;20405;-79
2021/01/25 10:23:26;;;;;;;16.55;7.57;;;3.50;76.10;;;2.32;72.43;96956.69;5051139;28;20412;-79
2021/01/25 10:25:59;;;;;;;15.32;6.57;;;3.50;76.10;;;2.61;71.69;96957.09;5034041;28;20423;-79
2021/01/25 10:28:50;;;;;;;19.80;10.25;;;3.60;76.00;;;2.53;71.57;96963.38;5035480;28;20407;-80
2021/01/25 10:31:17;;;;;;;15.57;7.07;;;3.70;75.40;;;2.75;71.02;96965.66;5014764;28;20421;-79